Time;durP1;ratioP1;P1;durP2;ratioP2;P2;SDS_P1;SDS_P2;PMS_P1;PMS_P2;Temp;Humidity;BMP_temperature;BMP_pressure;BME280_temperature;BME280_humidity;BME280_pressure;Samples;Min_cycle;Max_cycle;Signal;HPM_P1;HPM_P2
2024/01/21 00:01:56;;;;;;;4.13;1.90;;;;;;;18.71;35.88;102309.28;4915203;28;117279;-71
2024/01/21 00:04:22;;;;;;;3.30;2.10;;;;;;;18.71;36.25;102301.38;4917960;28;104964;-70
2024/01/21 00:06:47;;;;;;;3.47;1.83;;;;;;;18.72;35.83;102299.63;4920380;28;96965;-70
2024/01/21 00:09:13;;;;;;;3.28;2.28;;;;;;;18.71;36.10;102301.38;4915971;28;97858;-70
2024/01/21 00:11:38;;;;;;;3.97;2.10;;;;;;;18.70;36.04;102278.47;4914424;28;97014;-70
2024/01/21 00:14:03;;;;;;;4.38;2.88;;;;;;;18.71;35.85;102287.28;4913704;28;116640;-71
2024/01/21 00:16:29;;;;;;;3.00;2.17;;;;;;;18.71;36.08;102277.59;4914478;28;97446;-71
2024/01/21 00:18:54;;;;;;;4.07;1.98;;;;;;;18.71;36.00;102276.72;4917996;28;98907;-70
2024/01/21 00:21:19;;;;;;;4.13;2.42;;;;;;;18.70;36.08;102262.63;4914784;28;106442;-70
2024/01/21 00:23:46;;;;;;;3.28;2.17;;;;;;;18.70;35.61;102259.97;4919137;28;96778;-70
2024/01/21 00:26:12;;;;;;;4.50;2.42;;;;;;;18.70;35.83;102259.97;4914108;28;96945;-71
2024/01/21 00:28:38;;;;;;;3.10;2.35;;;;;;;18.71;35.82;102247.63;4915321;28;97237;-71
2024/01/21 00:31:04;;;;;;;3.22;1.58;;;;;;;18.71;36.23;102258.22;4910959;28;110624;-70
2024/01/21 00:33:29;;;;;;;4.57;2.05;;;;;;;18.71;36.12;102252.91;4917958;28;97901;-70
2024/01/21 00:35:54;;;;;;;3.72;2.30;;;;;;;18.70;36.03;102251.13;4916811;28;96865;-70
2024/01/21 00:38:20;;;;;;;2.90;1.60;;;;;;;18.70;35.85;102245.84;4917796;28;98059;-69
2024/01/21 00:40:45;;;;;;;3.30;2.05;;;;;;;18.69;35.87;102246.75;4915818;28;97267;-70
2024/01/21 00:43:11;;;;;;;2.67;1.52;;;;;;;18.71;36.06;102237.06;4914831;28;117664;-70
2024/01/21 00:45:36;;;;;;;3.28;2.00;;;;;;;18.71;36.06;102256.44;4911195;28;118060;-70
2024/01/21 00:48:01;;;;;;;3.47;2.33;;;;;;;18.70;35.82;102246.75;4913396;28;97226;-71
2024/01/21 00:50:27;;;;;;;4.05;1.80;;;;;;;18.69;35.99;102234.41;4912720;28;96759;-71
2024/01/21 00:52:52;;;;;;;3.28;2.05;;;;;;;18.70;35.73;102240.56;4915860;28;96947;-71
2024/01/21 00:55:18;;;;;;;3.50;1.85;;;;;;;18.71;35.69;102237.06;4913244;28;127603;-70
2024/01/21 00:57:44;;;;;;;3.13;2.10;;;;;;;18.69;35.87;102234.41;4916069;28;97048;-70
2024/01/21 01:00:10;;;;;;;3.38;1.98;;;;;;;18.70;36.15;102235.28;4916158;28;96786;-71
2024/01/21 01:02:36;;;;;;;2.92;1.67;;;;;;;18.70;35.72;102238.84;4917753;28;97029;-71
2024/01/21 01:05:01;;;;;;;4.10;1.73;;;;;;;18.70;35.73;102236.19;4913986;28;97109;-70
2024/01/21 01:07:27;;;;;;;4.78;2.47;;;;;;;18.70;35.86;102227.34;4898633;28;97190;-70
2024/01/21 01:09:52;;;;;;;3.22;1.75;;;;;;;18.70;35.63;102222.06;4915499;28;96879;-70
2024/01/21 01:12:18;;;;;;;2.60;2.08;;;;;;;18.69;35.96;102215.03;4916117;28;97159;-70
2024/01/21 01:14:43;;;;;;;4.00;2.30;;;;;;;18.69;35.62;102218.56;4916595;28;97208;-71
2024/01/21 01:17:09;;;;;;;2.63;1.63;;;;;;;18.70;35.74;102222.06;4915247;28;97405;-70
2024/01/21 01:19:34;;;;;;;2.63;2.03;;;;;;;18.70;35.74;102225.63;4914211;28;97132;-70
2024/01/21 01:22:00;;;;;;;3.00;1.67;;;;;;;18.69;35.72;102223.84;4916692;28;97720;-71
2024/01/21 01:24:25;;;;;;;3.13;1.77;;;;;;;18.69;35.62;102212.41;4912669;28;97952;-71
2024/01/21 01:26:50;;;;;;;2.25;1.40;;;;;;;18.69;35.93;102209.75;4916126;28;97417;-70
2024/01/21 01:29:16;;;;;;;3.08;1.70;;;;;;;18.69;35.97;102204.47;4914114;28;96839;-73
2024/01/21 01:31:42;;;;;;;3.25;1.90;;;;;;;18.69;35.60;102210.63;4912601;28;96823;-71
2024/01/21 01:34:08;;;;;;;3.28;1.85;;;;;;;18.68;35.86;102198.31;4912988;28;97169;-71
2024/01/21 01:36:33;;;;;;;3.25;1.63;;;;;;;18.69;35.89;102191.25;4916020;28;96817;-71
2024/01/21 01:38:59;;;;;;;3.17;1.65;;;;;;;18.69;35.79;102186.84;4912876;28;96809;-71
2024/01/21 01:41:24;;;;;;;3.20;1.73;;;;;;;18.68;35.93;102174.53;4915906;28;96868;-71
2024/01/21 01:43:49;;;;;;;3.15;2.00;;;;;;;18.68;35.82;102179.81;4914736;28;97476;-71
2024/01/21 01:46:15;;;;;;;3.65;1.50;;;;;;;18.68;35.79;102171.88;4914093;28;97232;-71
2024/01/21 01:48:41;;;;;;;3.13;2.10;;;;;;;18.68;35.63;102169.25;4914300;28;97335;-71
2024/01/21 01:51:07;;;;;;;2.45;1.60;;;;;;;18.68;35.48;102160.41;4912186;28;96958;-71
2024/01/21 01:53:35;;;;;;;3.75;1.70;;;;;;;18.68;35.66;102148.09;4912222;28;97415;-71
2024/01/21 01:56:00;;;;;;;3.30;1.88;;;;;;;18.68;35.66;102132.25;4915843;28;97243;-71
2024/01/21 01:58:29;;;;;;;3.70;2.20;;;;;;;18.68;35.89;102124.31;4895404;28;96838;-71
2024/01/21 02:00:56;;;;;;;2.95;1.65;;;;;;;18.68;35.66;102119.03;4913739;28;98168;-71
2024/01/21 02:03:24;;;;;;;2.97;1.80;;;;;;;18.68;35.69;102115.47;4917589;28;97347;-71
2024/01/21 02:05:50;;;;;;;2.67;1.40;;;;;;;18.67;35.79;102109.31;4908771;28;97916;-71
2024/01/21 02:08:16;;;;;;;2.60;1.67;;;;;;;18.67;35.76;102114.63;4913554;28;98237;-71
2024/01/21 02:10:41;;;;;;;3.45;2.40;;;;;;;18.68;35.89;102112.84;4915043;28;96928;-71
2024/01/21 02:13:06;;;;;;;2.63;1.70;;;;;;;18.67;35.48;102114.63;4895592;28;99564;-71
2024/01/21 02:15:32;;;;;;;2.90;1.63;;;;;;;18.68;35.83;102116.38;4911748;28;98116;-71
2024/01/21 02:17:57;;;;;;;2.53;1.52;;;;;;;18.67;35.69;102111.09;4913384;28;118625;-71
2024/01/21 02:20:23;;;;;;;3.60;2.25;;;;;;;18.67;35.49;102111.09;4915778;28;118435;-71
2024/01/21 02:22:48;;;;;;;3.17;1.65;;;;;;;18.67;35.64;102105.81;4913803;28;98466;-71
2024/01/21 02:25:14;;;;;;;3.13;1.90;;;;;;;18.66;35.31;102107.56;4915318;28;97148;-71
2024/01/21 02:27:39;;;;;;;2.90;1.55;;;;;;;18.66;35.56;102099.63;4914517;28;96905;-71
2024/01/21 02:30:06;;;;;;;3.95;2.15;;;;;;;18.67;35.52;102090.81;4914198;28;97172;-71
2024/01/21 02:32:31;;;;;;;3.53;2.30;;;;;;;18.66;35.78;102081.13;4916948;28;97583;-71
2024/01/21 02:34:56;;;;;;;2.95;1.70;;;;;;;18.66;35.83;102067.91;4913457;28;121818;-71
2024/01/21 02:37:22;;;;;;;2.60;1.45;;;;;;;18.65;35.41;102072.31;4914964;28;117195;-71
2024/01/21 02:39:47;;;;;;;2.63;1.90;;;;;;;18.65;35.58;102063.53;4912141;28;98111;-71
2024/01/21 02:42:13;;;;;;;2.70;2.13;;;;;;;18.64;35.47;102067.94;4915329;28;98216;-71
2024/01/21 02:44:38;;;;;;;3.92;1.98;;;;;;;18.66;35.67;102067.91;4913131;28;97327;-70
2024/01/21 02:47:04;;;;;;;3.05;2.10;;;;;;;18.65;35.37;102058.25;4910901;28;96990;-72
2024/01/21 02:49:29;;;;;;;3.35;2.00;;;;;;;18.65;35.37;102055.59;4916442;28;96916;-71
2024/01/21 02:51:56;;;;;;;2.33;1.35;;;;;;;18.65;35.34;102052.97;4913050;28;96909;-71
2024/01/21 02:54:22;;;;;;;3.30;2.20;;;;;;;18.65;35.74;102050.31;4913885;28;97813;-71
2024/01/21 02:56:47;;;;;;;2.65;1.25;;;;;;;18.65;35.22;102045.91;4913804;28;96855;-71
2024/01/21 02:59:13;;;;;;;2.88;1.77;;;;;;;18.65;35.21;102039.75;4911858;28;109548;-71
2024/01/21 03:01:38;;;;;;;2.70;1.75;;;;;;;18.65;35.47;102032.69;4911784;28;99358;-71
2024/01/21 03:04:04;;;;;;;3.13;2.08;;;;;;;18.65;35.69;102026.53;4913902;28;97275;-71
2024/01/21 03:06:29;;;;;;;2.88;2.03;;;;;;;18.65;35.61;102031.81;4910609;28;97152;-71
2024/01/21 03:08:54;;;;;;;2.80;1.52;;;;;;;18.65;35.34;102031.81;4911367;28;97946;-71
2024/01/21 03:11:20;;;;;;;3.22;1.58;;;;;;;18.64;35.24;102009.81;4914414;28;126876;-71
2024/01/21 03:13:45;;;;;;;2.83;2.00;;;;;;;18.64;35.43;101995.69;4916598;28;97134;-71
2024/01/21 03:16:11;;;;;;;2.45;1.48;;;;;;;18.64;35.27;102014.19;4912781;28;115226;-72
2024/01/21 03:18:38;;;;;;;2.35;1.38;;;;;;;18.64;35.23;102015.09;4917054;28;97509;-71
2024/01/21 03:21:07;;;;;;;3.10;1.85;;;;;;;18.65;35.08;102013.31;4897761;28;97494;-71
2024/01/21 03:23:33;;;;;;;2.90;1.80;;;;;;;18.65;35.54;101994.81;4918769;28;97257;-71
2024/01/21 03:25:59;;;;;;;2.63;1.45;;;;;;;18.65;35.30;101981.59;4915583;28;97272;-71
2024/01/21 03:28:24;;;;;;;2.80;2.10;;;;;;;18.64;35.22;101970.16;4914878;28;97555;-71
2024/01/21 03:30:50;;;;;;;3.13;1.92;;;;;;;18.64;35.29;101961.34;4909515;28;99769;-71
2024/01/21 03:33:15;;;;;;;3.22;1.88;;;;;;;18.64;35.56;101963.97;4917865;28;98017;-71
2024/01/21 03:35:41;;;;;;;2.83;1.70;;;;;;;18.64;35.23;101950.78;4917499;28;97453;-71
2024/01/21 03:38:06;;;;;;;2.45;2.00;;;;;;;18.64;35.14;101956.06;4919639;28;97329;-71
2024/01/21 03:40:31;;;;;;;2.72;1.92;;;;;;;18.64;35.15;101956.94;4912738;28;100011;-71
2024/01/21 03:42:57;;;;;;;3.95;2.30;;;;;;;18.63;35.37;101954.31;4913291;28;125399;-72
2024/01/21 03:45:22;;;;;;;2.83;1.63;;;;;;;18.63;35.51;101959.59;4913112;28;115807;-71
2024/01/21 03:47:48;;;;;;;3.33;2.40;;;;;;;18.64;35.50;101969.25;4915084;28;97547;-70
2024/01/21 03:50:19;;;;;;;2.95;1.25;;;;;;;18.63;35.44;101971.03;4916036;28;96950;-71
2024/01/21 03:52:48;;;;;;;3.42;1.55;;;;;;;18.63;35.00;101964.88;4915816;28;97448;-71
2024/01/21 03:55:19;;;;;;;3.80;1.60;;;;;;;18.63;35.09;101960.47;4896561;28;96839;-71
2024/01/21 03:57:45;;;;;;;2.40;1.42;;;;;;;18.63;35.31;101960.47;4916919;28;96881;-71
2024/01/21 04:00:11;;;;;;;2.53;1.52;;;;;;;18.64;35.52;101964.88;4915293;28;97973;-71
2024/01/21 04:02:37;;;;;;;3.08;2.20;;;;;;;18.63;35.10;101965.75;4915403;28;96892;-71
2024/01/21 04:05:04;;;;;;;2.83;1.40;;;;;;;18.63;35.21;101963.09;4915079;28;96913;-71
2024/01/21 04:07:30;;;;;;;2.45;1.50;;;;;;;18.63;35.16;101965.75;4915895;28;97195;-71
2024/01/21 04:09:55;;;;;;;4.05;1.88;;;;;;;18.63;35.45;101972.81;4911877;28;96854;-71
2024/01/21 04:12:20;;;;;;;2.80;1.90;;;;;;;18.62;35.41;101963.97;4918398;28;128856;-71
2024/01/21 04:14:46;;;;;;;2.00;1.20;;;;;;;18.63;35.31;101963.09;4913873;28;109323;-71
2024/01/21 04:17:11;;;;;;;2.55;1.67;;;;;;;18.62;35.05;101963.97;4900660;28;98481;-71
2024/01/21 04:19:37;;;;;;;2.83;1.83;;;;;;;18.62;35.32;101947.25;4914714;28;97726;-71
2024/01/21 04:22:02;;;;;;;2.85;1.50;;;;;;;18.63;35.07;101938.47;4913863;28;98722;-71
2024/01/21 04:24:28;;;;;;;3.10;2.15;;;;;;;18.63;35.04;101912.03;4911895;28;97545;-71
2024/01/21 04:26:54;;;;;;;2.60;1.70;;;;;;;18.63;35.10;101914.69;4910737;28;96918;-71
2024/01/21 04:29:19;;;;;;;3.17;1.85;;;;;;;18.62;35.03;101913.78;4914757;28;119530;-71
2024/01/21 04:31:44;;;;;;;2.17;1.67;;;;;;;18.62;35.29;101905.84;4897324;28;126609;-71
2024/01/21 04:34:10;;;;;;;2.53;1.80;;;;;;;18.62;35.37;101900.56;4914248;28;96715;-71
2024/01/21 04:36:35;;;;;;;2.38;1.80;;;;;;;18.63;34.83;101893.53;4916176;28;118084;-71
2024/01/21 04:39:01;;;;;;;2.55;1.88;;;;;;;18.62;35.14;101897.91;4914353;28;127002;-71
2024/01/21 04:41:26;;;;;;;2.70;1.50;;;;;;;18.62;35.16;101894.41;4914545;28;96817;-71
2024/01/21 04:43:52;;;;;;;2.40;1.13;;;;;;;18.62;35.19;101904.97;4896363;28;96952;-72
2024/01/21 04:46:17;;;;;;;2.50;1.88;;;;;;;18.62;35.02;101897.91;4914441;28;110298;-71
2024/01/21 04:48:42;;;;;;;2.30;1.70;;;;;;;18.62;35.26;101899.69;4914097;28;119121;-71
2024/01/21 04:51:08;;;;;;;3.20;1.58;;;;;;;18.62;35.33;101886.47;4917191;28;103539;-71
2024/01/21 04:53:33;;;;;;;2.17;1.20;;;;;;;18.61;34.89;101884.75;4910934;28;117724;-71
2024/01/21 04:55:59;;;;;;;2.20;1.58;;;;;;;18.61;35.30;101872.41;4915497;28;97521;-71
2024/01/21 04:58:24;;;;;;;2.67;1.73;;;;;;;18.61;35.22;101864.47;4913292;28;99542;-70
2024/01/21 05:00:49;;;;;;;2.42;1.67;;;;;;;18.61;34.97;101853.03;4912933;28;97516;-71
2024/01/21 05:03:15;;;;;;;2.60;1.63;;;;;;;18.61;35.22;101829.25;4915188;28;115977;-71
2024/01/21 05:05:40;;;;;;;2.50;1.27;;;;;;;18.61;35.17;101843.34;4916625;28;96868;-71
2024/01/21 05:08:06;;;;;;;2.50;1.70;;;;;;;18.61;35.10;101839.81;4912704;28;97518;-71
2024/01/21 05:10:31;;;;;;;2.65;1.75;;;;;;;18.60;35.32;101830.13;4914920;28;97713;-71
2024/01/21 05:12:57;;;;;;;2.10;1.00;;;;;;;18.61;34.91;101823.97;4916055;28;96777;-70
2024/01/21 05:15:22;;;;;;;2.80;1.85;;;;;;;18.60;34.93;101828.34;4913477;28;108182;-70
2024/01/21 05:17:47;;;;;;;2.45;1.80;;;;;;;18.61;35.25;101821.31;4909359;28;126877;-71
2024/01/21 05:20:13;;;;;;;2.33;1.55;;;;;;;18.60;35.13;101828.34;4912604;28;99829;-71
2024/01/21 05:22:38;;;;;;;2.15;1.10;;;;;;;18.61;35.13;101813.41;4917513;28;97131;-71
2024/01/21 05:25:04;;;;;;;2.10;1.65;;;;;;;18.60;35.23;101809.00;4911857;28;115016;-71
2024/01/21 05:27:31;;;;;;;3.05;1.73;;;;;;;18.61;34.82;101819.56;4914939;28;99668;-71
2024/01/21 05:29:56;;;;;;;2.38;1.23;;;;;;;18.61;35.01;101827.47;4913613;28;97223;-71
2024/01/21 05:32:21;;;;;;;2.85;1.30;;;;;;;18.61;35.17;101845.97;4910684;28;109211;-71
2024/01/21 05:34:47;;;;;;;2.17;1.40;;;;;;;18.60;34.81;101857.41;4913292;28;110083;-71
2024/01/21 05:37:12;;;;;;;2.63;1.55;;;;;;;18.60;35.11;101849.50;4911963;28;122556;-71
2024/01/21 05:39:38;;;;;;;2.10;1.20;;;;;;;18.60;35.06;101838.91;4914310;28;97291;-70
2024/01/21 05:42:05;;;;;;;2.28;1.77;;;;;;;18.60;35.19;101838.06;4913666;28;96884;-71
2024/01/21 05:44:30;;;;;;;2.20;1.58;;;;;;;18.60;34.86;101827.47;4899242;28;96964;-71
2024/01/21 05:46:56;;;;;;;2.15;1.20;;;;;;;18.61;34.87;101818.69;4915816;28;97770;-71
2024/01/21 05:49:22;;;;;;;2.42;1.63;;;;;;;18.60;34.99;101807.22;4894270;28;120840;-70
2024/01/21 05:51:47;;;;;;;2.08;1.23;;;;;;;18.61;35.13;101802.84;4913068;28;96900;-70
2024/01/21 05:54:13;;;;;;;2.75;1.67;;;;;;;18.61;34.96;101800.19;4913959;28;97154;-71
2024/01/21 05:56:38;;;;;;;2.35;1.25;;;;;;;18.60;35.23;101799.28;4908635;28;126820;-71
2024/01/21 05:59:04;;;;;;;2.22;1.30;;;;;;;18.60;35.25;101795.78;4895878;28;97822;-71
2024/01/21 06:01:29;;;;;;;2.80;1.60;;;;;;;18.61;35.09;101805.47;4915447;28;114165;-71
2024/01/21 06:03:55;;;;;;;2.30;1.02;;;;;;;18.60;34.99;101794.00;4912506;28;107042;-71
2024/01/21 06:06:20;;;;;;;2.63;1.88;;;;;;;18.60;34.68;101809.84;4915788;28;99756;-70
2024/01/21 06:08:45;;;;;;;2.60;1.70;;;;;;;18.60;34.95;101820.44;4911359;28;124812;-71
2024/01/21 06:11:11;;;;;;;2.38;1.38;;;;;;;18.60;34.78;101819.56;4916673;28;105234;-70
2024/01/21 06:13:36;;;;;;;2.40;1.50;;;;;;;18.60;35.46;101806.34;4913211;28;97455;-71
2024/01/21 06:16:03;;;;;;;1.55;1.02;;;;;;;18.61;34.97;101805.47;4911513;28;127337;-70
2024/01/21 06:18:29;;;;;;;1.90;1.08;;;;;;;18.60;34.89;101811.63;4911938;28;96830;-70
2024/01/21 06:20:54;;;;;;;2.47;1.58;;;;;;;18.60;35.00;101806.34;4915076;28;96895;-71
2024/01/21 06:23:20;;;;;;;2.30;1.30;;;;;;;18.60;35.09;101801.06;4915037;28;96846;-71
2024/01/21 06:25:45;;;;;;;2.55;1.60;;;;;;;18.60;35.11;101793.13;4915328;28;100133;-71
2024/01/21 06:28:11;;;;;;;2.00;0.88;;;;;;;18.60;35.05;101795.78;4913472;28;110947;-71
2024/01/21 06:30:36;;;;;;;2.47;1.73;;;;;;;18.60;34.71;101801.06;4911986;28;96787;-71
2024/01/21 06:33:01;;;;;;;2.42;1.55;;;;;;;18.60;34.97;101811.63;4912886;28;115532;-71
2024/01/21 06:35:27;;;;;;;2.22;1.38;;;;;;;18.60;35.09;101809.84;4915032;28;97670;-71
2024/01/21 06:37:53;;;;;;;2.00;1.00;;;;;;;18.60;34.77;101817.78;4912075;28;96809;-70
2024/01/21 06:40:18;;;;;;;2.17;1.75;;;;;;;18.59;34.86;101816.03;4913009;28;97777;-70
2024/01/21 06:42:44;;;;;;;2.30;1.75;;;;;;;18.59;34.78;101823.97;4917823;28;97730;-71
2024/01/21 06:45:12;;;;;;;2.50;1.65;;;;;;;18.60;35.05;101832.75;4911079;28;97554;-71
2024/01/21 06:47:37;;;;;;;2.35;1.65;;;;;;;18.59;34.65;101817.78;4912890;28;97800;-71
2024/01/21 06:50:03;;;;;;;2.00;1.50;;;;;;;18.60;34.82;101819.56;4915601;28;96994;-71
2024/01/21 06:52:29;;;;;;;2.00;1.13;;;;;;;18.59;34.74;101818.69;4917088;28;98428;-70
2024/01/21 06:54:55;;;;;;;2.22;1.58;;;;;;;18.60;35.02;101827.47;4914666;28;101777;-71
2024/01/21 06:57:20;;;;;;;2.45;1.67;;;;;;;18.60;35.15;101838.91;4913568;28;97104;-71
2024/01/21 06:59:46;;;;;;;2.03;1.30;;;;;;;18.59;34.93;101839.81;4911229;28;97090;-71
2024/01/21 07:02:11;;;;;;;2.70;1.23;;;;;;;18.60;34.79;101840.69;4915445;28;97013;-71
2024/01/21 07:04:37;;;;;;;2.70;1.75;;;;;;;18.60;34.85;101840.69;4912995;28;97730;-70
2024/01/21 07:07:03;;;;;;;1.95;1.05;;;;;;;18.60;34.98;101849.50;4913277;28;97182;-70
2024/01/21 07:09:29;;;;;;;2.88;2.00;;;;;;;18.60;34.65;101840.69;4907477;28;97761;-71
2024/01/21 07:11:55;;;;;;;2.97;1.88;;;;;;;18.60;34.69;101848.63;4912184;28;97214;-71
2024/01/21 07:14:20;;;;;;;1.73;1.00;;;;;;;18.60;35.05;101838.91;4915316;28;97517;-71
2024/01/21 07:16:46;;;;;;;2.30;1.40;;;;;;;18.60;34.71;101814.28;4912334;28;97306;-71
2024/01/21 07:19:11;;;;;;;2.63;1.20;;;;;;;18.59;34.69;101804.56;4913118;28;104097;-71
2024/01/21 07:21:37;;;;;;;2.42;1.13;;;;;;;18.59;34.86;101792.25;4913488;28;96942;-70
2024/01/21 07:24:02;;;;;;;2.65;1.63;;;;;;;18.59;34.70;101780.78;4898426;28;97276;-70
2024/01/21 07:26:28;;;;;;;2.03;1.30;;;;;;;18.59;34.85;101768.47;4901200;28;97717;-71
2024/01/21 07:28:53;;;;;;;1.90;0.88;;;;;;;18.59;34.82;101783.44;4910877;28;97983;-70
2024/01/21 07:31:19;;;;;;;1.90;1.27;;;;;;;18.60;34.95;101785.22;4912018;28;98543;-70
2024/01/21 07:33:44;;;;;;;2.17;1.38;;;;;;;18.61;34.94;101784.34;4914542;28;98086;-70
2024/01/21 07:36:11;;;;;;;2.92;1.73;;;;;;;18.59;34.88;101772.88;4913105;28;97000;-69
2024/01/21 07:38:36;;;;;;;2.42;1.42;;;;;;;18.60;34.66;101774.63;4914201;28;97417;-70
2024/01/21 07:41:02;;;;;;;2.47;1.75;;;;;;;18.58;34.79;101777.28;4922576;28;97085;-70
2024/01/21 07:43:29;;;;;;;2.97;1.50;;;;;;;18.60;34.63;101774.63;4923066;28;97445;-70
2024/01/21 07:45:54;;;;;;;2.35;1.17;;;;;;;18.60;34.85;101780.78;4928731;28;96709;-70
2024/01/21 07:48:20;;;;;;;2.83;1.90;;;;;;;18.59;35.02;101810.75;4928323;28;96989;-70
2024/01/21 07:50:46;;;;;;;2.83;1.73;;;;;;;18.60;34.88;101791.34;4911526;28;96894;-70
2024/01/21 07:53:12;;;;;;;2.33;1.38;;;;;;;18.61;34.88;101777.28;4928530;28;96860;-70
2024/01/21 07:55:37;;;;;;;1.88;1.25;;;;;;;18.61;34.69;101789.63;4914251;28;99341;-70
2024/01/21 07:58:03;;;;;;;2.42;1.73;;;;;;;18.60;34.86;101817.78;4913234;28;116901;-70
2024/01/21 08:00:28;;;;;;;2.42;1.13;;;;;;;18.60;34.72;101825.72;4913353;28;96962;-71
2024/01/21 08:02:54;;;;;;;2.15;0.85;;;;;;;18.61;34.89;101824.84;4931952;28;96848;-70
2024/01/21 08:05:20;;;;;;;2.30;1.67;;;;;;;18.60;34.95;101841.56;4914203;28;97562;-70
2024/01/21 08:07:46;;;;;;;2.45;1.60;;;;;;;18.60;34.77;101833.63;4915591;28;97120;-70
2024/01/21 08:10:11;;;;;;;2.00;1.60;;;;;;;18.61;34.81;101853.03;4932565;28;96826;-71
2024/01/21 08:12:36;;;;;;;2.38;1.70;;;;;;;18.60;34.81;101856.53;4935903;28;98005;-70
2024/01/21 08:15:03;;;;;;;2.47;1.45;;;;;;;18.61;34.64;101847.75;4935347;28;104948;-70
2024/01/21 08:17:28;;;;;;;2.70;1.00;;;;;;;18.60;34.59;101843.34;4927945;28;97145;-70
2024/01/21 08:19:53;;;;;;;1.90;1.45;;;;;;;18.60;34.50;101857.41;4923291;28;117740;-70
2024/01/21 08:22:19;;;;;;;2.20;1.40;;;;;;;18.61;34.91;101882.09;4914342;28;96784;-70
2024/01/21 08:24:44;;;;;;;2.85;1.73;;;;;;;18.61;34.65;101871.53;4897977;28;127732;-71
2024/01/21 08:27:10;;;;;;;2.28;1.45;;;;;;;18.61;34.67;101887.38;4928722;28;116446;-69
2024/01/21 08:29:39;;;;;;;2.60;1.25;;;;;;;18.60;34.69;101881.19;4898919;28;96673;-72
2024/01/21 08:32:07;;;;;;;;;;;;;;;18.55;34.78;101876.81;4930956;28;97635;-72
2024/01/21 08:34:33;;;;;;;2.17;1.23;;;;;;;18.55;34.80;101861.84;4913084;28;99946;-72
2024/01/21 08:36:58;;;;;;;3.08;1.50;;;;;;;18.58;35.03;101884.75;4930595;28;96722;-72
2024/01/21 08:39:24;;;;;;;1.90;1.30;;;;;;;18.59;35.20;101878.56;4925352;28;101431;-72
2024/01/21 08:41:49;;;;;;;2.53;1.35;;;;;;;18.58;34.93;101872.41;4912066;28;125479;-72
2024/01/21 08:44:15;;;;;;;2.17;1.15;;;;;;;18.59;34.77;101860.06;4913634;28;97273;-72
2024/01/21 08:46:41;;;;;;;3.28;1.90;;;;;;;18.59;34.85;101865.34;4913476;28;96762;-72
2024/01/21 08:49:06;;;;;;;2.45;1.02;;;;;;;18.59;34.77;101866.25;4912312;28;97268;-72
2024/01/21 08:51:31;;;;;;;2.53;1.13;;;;;;;18.59;34.88;101879.47;4913409;28;96846;-72
2024/01/21 08:53:57;;;;;;;1.85;1.40;;;;;;;18.59;34.81;101866.25;4924044;28;113719;-72
2024/01/21 08:56:26;;;;;;;2.42;1.23;;;;;;;18.60;34.93;101860.06;4913100;28;96726;-72
2024/01/21 08:58:52;;;;;;;2.65;1.70;;;;;;;18.61;34.94;101868.88;4913155;28;97209;-72
2024/01/21 09:01:19;;;;;;;2.88;1.95;;;;;;;18.60;34.88;101881.19;4911455;28;97917;-72
2024/01/21 09:03:44;;;;;;;1.65;1.08;;;;;;;18.60;34.84;101875.91;4895673;28;99756;-73
2024/01/21 09:06:10;;;;;;;2.05;1.17;;;;;;;18.61;34.97;101877.69;4910910;28;117888;-70
2024/01/21 09:08:36;;;;;;;1.95;1.15;;;;;;;18.59;34.85;101874.19;4914751;28;96828;-70
2024/01/21 09:11:01;;;;;;;2.45;1.40;;;;;;;18.61;34.70;101863.59;4929936;28;96741;-70
2024/01/21 09:13:27;;;;;;;1.80;1.30;;;;;;;18.61;34.88;101855.69;4914616;28;97508;-70
2024/01/21 09:15:52;;;;;;;2.35;1.38;;;;;;;18.61;34.68;101856.53;4929781;28;96739;-70
2024/01/21 09:18:17;;;;;;;3.22;1.80;;;;;;;18.62;34.95;101865.34;4912268;28;97139;-70
2024/01/21 09:20:43;;;;;;;2.03;1.02;;;;;;;18.61;34.81;101869.75;4927255;28;127778;-70
2024/01/21 09:23:08;;;;;;;2.22;1.20;;;;;;;18.62;34.71;101875.91;4912301;28;97251;-70
2024/01/21 09:25:34;;;;;;;2.13;1.35;;;;;;;18.63;34.80;101882.97;4929666;28;97051;-70
2024/01/21 09:27:59;;;;;;;2.30;1.25;;;;;;;18.62;34.85;101873.25;4913597;28;96945;-70
2024/01/21 09:30:24;;;;;;;2.67;1.80;;;;;;;18.61;34.68;101890.03;4928113;28;121819;-70
2024/01/21 09:32:50;;;;;;;1.95;1.05;;;;;;;18.62;34.71;101900.56;4927690;28;126444;-70
2024/01/21 09:35:15;;;;;;;2.20;1.67;;;;;;;18.62;34.87;101899.69;4928830;28;96956;-70
2024/01/21 09:37:41;;;;;;;2.13;1.60;;;;;;;18.62;34.90;101911.13;4928242;28;96869;-70
2024/01/21 09:40:07;;;;;;;2.22;1.30;;;;;;;18.62;34.83;101903.19;4918161;28;97016;-70
2024/01/21 09:42:32;;;;;;;2.47;2.10;;;;;;;18.62;34.73;101902.34;4913996;28;97633;-70
2024/01/21 09:44:58;;;;;;;2.33;0.93;;;;;;;18.63;34.59;101889.13;4928365;28;117604;-70
2024/01/21 09:47:25;;;;;;;2.05;1.50;;;;;;;18.63;35.02;101910.25;4925286;28;97291;-70
2024/01/21 09:49:51;;;;;;;2.60;1.05;;;;;;;18.63;34.51;101896.19;4912766;28;97075;-70
2024/01/21 09:52:18;;;;;;;1.88;1.23;;;;;;;18.63;34.67;101891.75;4912698;28;96903;-70
2024/01/21 09:54:43;;;;;;;2.03;1.35;;;;;;;18.64;34.82;101903.19;4910892;28;97340;-70
2024/01/21 09:57:11;;;;;;;1.80;1.17;;;;;;;18.64;34.87;101909.38;4924924;28;99337;-72
2024/01/21 09:59:37;;;;;;;2.40;1.20;;;;;;;18.64;34.98;101916.41;4909907;28;96862;-72
2024/01/21 10:02:03;;;;;;;2.25;1.60;;;;;;;18.64;34.72;101914.69;4911180;28;125527;-72
2024/01/21 10:04:29;;;;;;;2.08;1.27;;;;;;;18.64;34.81;101912.03;4911102;28;96720;-72
2024/01/21 10:06:55;;;;;;;2.35;1.42;;;;;;;18.63;34.95;101904.09;4915057;28;98685;-72
2024/01/21 10:09:22;;;;;;;1.90;1.13;;;;;;;18.64;34.72;101904.09;4924887;28;98066;-72
2024/01/21 10:11:49;;;;;;;2.90;1.40;;;;;;;18.64;34.84;101897.91;4924200;28;97203;-72
2024/01/21 10:14:15;;;;;;;2.33;1.05;;;;;;;18.64;34.88;101903.19;4926899;28;96869;-72
2024/01/21 10:16:42;;;;;;;1.58;0.85;;;;;;;18.64;34.90;101911.13;4905998;28;96990;-73
2024/01/21 10:19:11;;;;;;;2.00;0.93;;;;;;;18.64;34.88;101897.91;4921260;28;96819;-71
2024/01/21 10:21:36;;;;;;;2.03;0.93;;;;;;;18.65;35.03;101899.69;4921475;28;97670;-72
2024/01/21 10:24:02;;;;;;;2.03;1.15;;;;;;;18.66;35.23;101890.84;4927669;28;97383;-72
2024/01/21 10:26:27;;;;;;;2.10;1.52;;;;;;;18.67;34.88;101887.34;4923420;28;97836;-72
2024/01/21 10:28:52;;;;;;;2.08;1.20;;;;;;;18.68;34.68;101878.53;4927357;28;121617;-72
2024/01/21 10:31:18;;;;;;;2.38;1.50;;;;;;;18.69;34.82;101880.28;4915905;28;119226;-71
2024/01/21 10:33:44;;;;;;;2.45;1.60;;;;;;;18.69;35.11;101887.34;4928037;28;116404;-72
2024/01/21 10:36:10;;;;;;;1.90;1.02;;;;;;;18.70;34.68;101889.97;4910874;28;96844;-72
2024/01/21 10:38:50;;;;;;;2.65;1.70;;;;;;;18.70;34.60;101894.38;4919777;28;98713;-71
2024/01/21 10:41:31;;;;;;;3.33;1.13;;;;;;;18.70;34.83;101889.97;4922416;28;97620;-70
2024/01/21 10:43:58;;;;;;;2.83;2.05;;;;;;;18.70;34.70;101879.41;4913287;28;97093;-69
2024/01/21 10:46:25;;;;;;;4.18;1.88;;;;;;;18.69;34.80;101874.13;4927556;28;97020;-70
2024/01/21 10:48:55;;;;;;;3.05;1.17;;;;;;;18.70;34.71;101867.94;4926013;28;96856;-70
2024/01/21 10:51:21;;;;;;;2.45;1.35;;;;;;;18.69;34.73;101868.84;4932216;28;97523;-70
2024/01/21 10:53:53;;;;;;;2.45;1.58;;;;;;;18.69;34.78;101869.72;4918634;28;97074;-70
2024/01/21 10:56:23;;;;;;;3.22;1.50;;;;;;;18.69;34.87;101861.78;4923540;28;99031;-70
2024/01/21 10:58:49;;;;;;;2.05;0.90;;;;;;;18.68;34.86;101849.47;4924783;28;97506;-70
2024/01/21 11:01:16;;;;;;;2.15;1.52;;;;;;;18.69;34.78;101845.94;4923464;28;97406;-70
2024/01/21 11:03:44;;;;;;;2.67;0.98;;;;;;;18.69;34.91;101851.22;4924656;28;98333;-70
2024/01/21 11:06:10;;;;;;;2.25;1.33;;;;;;;18.70;34.91;101836.22;4910785;28;96825;-70
2024/01/21 11:08:37;;;;;;;2.05;1.05;;;;;;;18.70;34.77;101831.84;4926676;28;96924;-70
2024/01/21 11:11:08;;;;;;;2.63;1.67;;;;;;;18.69;34.89;101838.00;4925850;28;96679;-70
2024/01/21 11:13:51;;;;;;;4.40;1.10;;;;;;;18.69;34.81;101824.78;4925196;28;97070;-69
2024/01/21 11:16:25;;;;;;;2.28;1.23;;;;;;;18.69;34.80;101837.13;4921901;28;96829;-70
2024/01/21 11:18:51;;;;;;;3.05;1.48;;;;;;;18.68;34.84;101830.97;4905916;28;112235;-70